sensor_id;sensor_type;location;lat;lon;timestamp;P1;durP1;ratioP1;P2;durP2;ratioP2
20954;SDS011;10636;19.390;-99.256;2022-10-31T00:01:26;21.40;;;19.30;;
20954;SDS011;10636;19.390;-99.256;2022-10-31T00:03:57;21.77;;;19.33;;
20954;SDS011;10636;19.390;-99.256;2022-10-31T00:06:25;20.75;;;18.65;;
20954;SDS011;10636;19.390;-99.256;2022-10-31T00:08:55;20.98;;;18.88;;
20954;SDS011;10636;19.390;-99.256;2022-10-31T00:11:25;22.55;;;20.35;;
20954;SDS011;10636;19.390;-99.256;2022-10-31T00:13:54;21.85;;;19.35;;
20954;SDS011;10636;19.390;-99.256;2022-10-31T00:16:25;21.38;;;19.38;;
20954;SDS011;10636;19.390;-99.256;2022-10-31T00:18:56;22.77;;;20.77;;
20954;SDS011;10636;19.390;-99.256;2022-10-31T00:21:25;22.52;;;20.45;;
20954;SDS011;10636;19.390;-99.256;2022-10-31T00:23:54;22.88;;;20.88;;
20954;SDS011;10636;19.390;-99.256;2022-10-31T00:26:22;22.63;;;20.10;;
20954;SDS011;10636;19.390;-99.256;2022-10-31T00:28:53;23.20;;;21.00;;
20954;SDS011;10636;19.390;-99.256;2022-10-31T00:31:22;21.88;;;19.45;;
20954;SDS011;10636;19.390;-99.256;2022-10-31T00:33:52;23.08;;;20.98;;
20954;SDS011;10636;19.390;-99.256;2022-10-31T00:36:21;24.77;;;21.75;;
20954;SDS011;10636;19.390;-99.256;2022-10-31T00:38:49;25.63;;;23.20;;
20954;SDS011;10636;19.390;-99.256;2022-10-31T00:41:17;25.95;;;23.55;;
20954;SDS011;10636;19.390;-99.256;2022-10-31T00:43:46;25.52;;;23.00;;
20954;SDS011;10636;19.390;-99.256;2022-10-31T00:46:14;24.23;;;21.88;;
20954;SDS011;10636;19.390;-99.256;2022-10-31T00:48:43;25.45;;;22.98;;
20954;SDS011;10636;19.390;-99.256;2022-10-31T00:51:13;25.80;;;23.48;;
20954;SDS011;10636;19.390;-99.256;2022-10-31T00:53:41;26.63;;;22.98;;
20954;SDS011;10636;19.390;-99.256;2022-10-31T00:56:10;25.42;;;22.83;;
20954;SDS011;10636;19.390;-99.256;2022-10-31T00:58:38;25.35;;;23.00;;
20954;SDS011;10636;19.390;-99.256;2022-10-31T01:01:06;24.95;;;22.67;;
20954;SDS011;10636;19.390;-99.256;2022-10-31T01:03:35;24.83;;;22.40;;
20954;SDS011;10636;19.390;-99.256;2022-10-31T01:06:05;24.70;;;22.45;;
20954;SDS011;10636;19.390;-99.256;2022-10-31T01:08:37;21.90;;;19.73;;
20954;SDS011;10636;19.390;-99.256;2022-10-31T01:11:06;24.35;;;21.98;;
20954;SDS011;10636;19.390;-99.256;2022-10-31T01:13:37;25.05;;;22.65;;
20954;SDS011;10636;19.390;-99.256;2022-10-31T01:16:07;25.77;;;23.38;;
20954;SDS011;10636;19.390;-99.256;2022-10-31T01:18:38;24.73;;;22.45;;
20954;SDS011;10636;19.390;-99.256;2022-10-31T01:21:07;24.08;;;21.92;;
20954;SDS011;10636;19.390;-99.256;2022-10-31T01:23:38;22.60;;;20.30;;
20954;SDS011;10636;19.390;-99.256;2022-10-31T01:26:07;23.02;;;20.92;;
20954;SDS011;10636;19.390;-99.256;2022-10-31T01:28:38;23.92;;;21.67;;
20954;SDS011;10636;19.390;-99.256;2022-10-31T01:31:10;24.05;;;21.85;;
20954;SDS011;10636;19.390;-99.256;2022-10-31T01:33:38;22.02;;;19.83;;
20954;SDS011;10636;19.390;-99.256;2022-10-31T01:36:14;21.90;;;19.70;;
20954;SDS011;10636;19.390;-99.256;2022-10-31T01:38:46;22.92;;;20.83;;
20954;SDS011;10636;19.390;-99.256;2022-10-31T01:41:17;22.27;;;20.10;;
20954;SDS011;10636;19.390;-99.256;2022-10-31T01:43:48;23.73;;;21.35;;
20954;SDS011;10636;19.390;-99.256;2022-10-31T01:46:19;23.05;;;20.88;;
20954;SDS011;10636;19.390;-99.256;2022-10-31T01:48:51;23.80;;;21.40;;
20954;SDS011;10636;19.390;-99.256;2022-10-31T01:51:22;24.33;;;22.13;;
20954;SDS011;10636;19.390;-99.256;2022-10-31T01:53:58;24.27;;;21.88;;
20954;SDS011;10636;19.390;-99.256;2022-10-31T01:56:29;22.75;;;20.42;;
20954;SDS011;10636;19.390;-99.256;2022-10-31T01:58:59;22.92;;;20.55;;
20954;SDS011;10636;19.390;-99.256;2022-10-31T02:01:29;22.70;;;20.50;;
20954;SDS011;10636;19.390;-99.256;2022-10-31T02:03:57;23.85;;;21.33;;
20954;SDS011;10636;19.390;-99.256;2022-10-31T02:06:27;25.38;;;21.45;;
20954;SDS011;10636;19.390;-99.256;2022-10-31T02:09:05;28.58;;;25.88;;
20954;SDS011;10636;19.390;-99.256;2022-10-31T02:11:34;25.15;;;22.55;;
20954;SDS011;10636;19.390;-99.256;2022-10-31T02:14:04;31.33;;;28.52;;
20954;SDS011;10636;19.390;-99.256;2022-10-31T02:16:32;35.90;;;32.83;;
20954;SDS011;10636;19.390;-99.256;2022-10-31T02:19:01;38.40;;;35.10;;
20954;SDS011;10636;19.390;-99.256;2022-10-31T02:21:33;39.33;;;36.00;;
20954;SDS011;10636;19.390;-99.256;2022-10-31T02:30:18;25.55;;;22.92;;
20954;SDS011;10636;19.390;-99.256;2022-10-31T02:35:46;26.33;;;23.52;;
20954;SDS011;10636;19.390;-99.256;2022-10-31T02:38:28;41.47;;;38.05;;
20954;SDS011;10636;19.390;-99.256;2022-10-31T02:41:11;41.90;;;38.38;;
20954;SDS011;10636;19.390;-99.256;2022-10-31T02:43:49;42.30;;;38.92;;
20954;SDS011;10636;19.390;-99.256;2022-10-31T02:46:28;42.90;;;39.55;;
20954;SDS011;10636;19.390;-99.256;2022-10-31T02:49:05;42.05;;;38.85;;
20954;SDS011;10636;19.390;-99.256;2022-10-31T02:51:38;42.67;;;39.42;;
20954;SDS011;10636;19.390;-99.256;2022-10-31T02:54:16;39.63;;;36.53;;
20954;SDS011;10636;19.390;-99.256;2022-10-31T02:56:46;29.08;;;26.23;;
20954;SDS011;10636;19.390;-99.256;2022-10-31T02:59:17;29.45;;;26.55;;
20954;SDS011;10636;19.390;-99.256;2022-10-31T03:01:53;30.10;;;27.38;;
20954;SDS011;10636;19.390;-99.256;2022-10-31T03:04:40;30.30;;;27.30;;
20954;SDS011;10636;19.390;-99.256;2022-10-31T03:07:23;28.92;;;26.13;;
20954;SDS011;10636;19.390;-99.256;2022-10-31T03:10:01;28.55;;;25.75;;
20954;SDS011;10636;19.390;-99.256;2022-10-31T03:12:38;23.67;;;21.38;;
20954;SDS011;10636;19.390;-99.256;2022-10-31T03:15:12;19.00;;;15.85;;
20954;SDS011;10636;19.390;-99.256;2022-10-31T03:17:47;15.43;;;13.82;;
20954;SDS011;10636;19.390;-99.256;2022-10-31T03:20:24;13.25;;;11.88;;
20954;SDS011;10636;19.390;-99.256;2022-10-31T03:22:57;12.38;;;10.80;;
20954;SDS011;10636;19.390;-99.256;2022-10-31T03:25:28;10.35;;;9.27;;
20954;SDS011;10636;19.390;-99.256;2022-10-31T03:27:59;8.80;;;7.90;;
20954;SDS011;10636;19.390;-99.256;2022-10-31T03:30:29;10.00;;;9.10;;
20954;SDS011;10636;19.390;-99.256;2022-10-31T03:33:01;9.98;;;8.98;;
20954;SDS011;10636;19.390;-99.256;2022-10-31T03:35:36;10.27;;;9.20;;
20954;SDS011;10636;19.390;-99.256;2022-10-31T03:38:08;9.07;;;8.27;;
20954;SDS011;10636;19.390;-99.256;2022-10-31T03:40:37;9.88;;;8.98;;
20954;SDS011;10636;19.390;-99.256;2022-10-31T03:43:08;9.38;;;8.48;;
20954;SDS011;10636;19.390;-99.256;2022-10-31T03:45:40;10.07;;;8.93;;
20954;SDS011;10636;19.390;-99.256;2022-10-31T03:48:12;9.45;;;8.40;;
20954;SDS011;10636;19.390;-99.256;2022-10-31T03:50:45;9.30;;;8.50;;
20954;SDS011;10636;19.390;-99.256;2022-10-31T03:53:19;8.55;;;7.72;;
20954;SDS011;10636;19.390;-99.256;2022-10-31T03:55:52;8.95;;;8.07;;
20954;SDS011;10636;19.390;-99.256;2022-10-31T03:58:27;9.95;;;8.43;;
20954;SDS011;10636;19.390;-99.256;2022-10-31T04:00:59;10.43;;;8.95;;
20954;SDS011;10636;19.390;-99.256;2022-10-31T04:03:31;10.63;;;9.02;;
20954;SDS011;10636;19.390;-99.256;2022-10-31T04:06:05;9.65;;;8.75;;
20954;SDS011;10636;19.390;-99.256;2022-10-31T04:08:38;9.73;;;8.82;;
20954;SDS011;10636;19.390;-99.256;2022-10-31T04:11:10;11.02;;;8.57;;
20954;SDS011;10636;19.390;-99.256;2022-10-31T04:13:41;20.02;;;18.55;;
20954;SDS011;10636;19.390;-99.256;2022-10-31T04:16:12;23.00;;;21.50;;
20954;SDS011;10636;19.390;-99.256;2022-10-31T04:18:42;25.65;;;23.98;;
20954;SDS011;10636;19.390;-99.256;2022-10-31T04:21:13;25.13;;;23.55;;
20954;SDS011;10636;19.390;-99.256;2022-10-31T04:23:42;10.35;;;9.43;;
20954;SDS011;10636;19.390;-99.256;2022-10-31T04:26:10;11.50;;;9.07;;
20954;SDS011;10636;19.390;-99.256;2022-10-31T04:28:39;11.48;;;8.95;;
20954;SDS011;10636;19.390;-99.256;2022-10-31T04:31:08;10.73;;;8.65;;
20954;SDS011;10636;19.390;-99.256;2022-10-31T04:33:38;9.75;;;8.75;;
20954;SDS011;10636;19.390;-99.256;2022-10-31T04:36:06;9.63;;;8.73;;
20954;SDS011;10636;19.390;-99.256;2022-10-31T04:38:37;9.90;;;8.90;;
20954;SDS011;10636;19.390;-99.256;2022-10-31T04:41:06;9.90;;;8.90;;
20954;SDS011;10636;19.390;-99.256;2022-10-31T04:43:34;10.27;;;8.70;;
20954;SDS011;10636;19.390;-99.256;2022-10-31T04:46:03;9.75;;;8.80;;
20954;SDS011;10636;19.390;-99.256;2022-10-31T04:48:31;10.25;;;9.25;;
20954;SDS011;10636;19.390;-99.256;2022-10-31T04:51:00;10.25;;;9.15;;
20954;SDS011;10636;19.390;-99.256;2022-10-31T04:53:29;9.60;;;8.70;;
20954;SDS011;10636;19.390;-99.256;2022-10-31T04:55:59;11.23;;;10.10;;
20954;SDS011;10636;19.390;-99.256;2022-10-31T04:58:28;10.23;;;9.23;;
20954;SDS011;10636;19.390;-99.256;2022-10-31T05:00:56;10.68;;;9.60;;
20954;SDS011;10636;19.390;-99.256;2022-10-31T05:03:25;11.00;;;9.90;;
20954;SDS011;10636;19.390;-99.256;2022-10-31T05:05:53;11.02;;;10.02;;
20954;SDS011;10636;19.390;-99.256;2022-10-31T05:08:21;11.18;;;10.07;;
20954;SDS011;10636;19.390;-99.256;2022-10-31T05:10:52;10.95;;;9.85;;
20954;SDS011;10636;19.390;-99.256;2022-10-31T05:13:22;10.85;;;9.90;;
20954;SDS011;10636;19.390;-99.256;2022-10-31T05:15:50;11.50;;;10.40;;
20954;SDS011;10636;19.390;-99.256;2022-10-31T05:18:19;10.52;;;9.60;;
20954;SDS011;10636;19.390;-99.256;2022-10-31T05:20:47;11.15;;;10.05;;
20954;SDS011;10636;19.390;-99.256;2022-10-31T05:23:16;10.75;;;9.65;;
20954;SDS011;10636;19.390;-99.256;2022-10-31T05:25:44;10.35;;;9.35;;
20954;SDS011;10636;19.390;-99.256;2022-10-31T05:28:13;10.77;;;9.77;;
20954;SDS011;10636;19.390;-99.256;2022-10-31T05:30:43;11.20;;;10.10;;
20954;SDS011;10636;19.390;-99.256;2022-10-31T05:33:11;11.02;;;9.82;;
20954;SDS011;10636;19.390;-99.256;2022-10-31T05:35:39;10.48;;;9.48;;
20954;SDS011;10636;19.390;-99.256;2022-10-31T05:38:08;10.25;;;9.13;;
20954;SDS011;10636;19.390;-99.256;2022-10-31T05:40:36;10.43;;;9.35;;
20954;SDS011;10636;19.390;-99.256;2022-10-31T05:43:05;10.50;;;9.50;;
20954;SDS011;10636;19.390;-99.256;2022-10-31T05:45:33;10.23;;;9.32;;
20954;SDS011;10636;19.390;-99.256;2022-10-31T05:48:03;11.75;;;9.50;;
20954;SDS011;10636;19.390;-99.256;2022-10-31T05:50:32;10.65;;;9.65;;
20954;SDS011;10636;19.390;-99.256;2022-10-31T05:53:01;9.95;;;9.15;;
20954;SDS011;10636;19.390;-99.256;2022-10-31T05:55:31;10.38;;;9.38;;
20954;SDS011;10636;19.390;-99.256;2022-10-31T05:58:00;10.07;;;9.18;;
20954;SDS011;10636;19.390;-99.256;2022-10-31T06:00:28;10.45;;;9.45;;
20954;SDS011;10636;19.390;-99.256;2022-10-31T06:02:57;11.18;;;10.18;;
20954;SDS011;10636;19.390;-99.256;2022-10-31T06:05:28;11.00;;;10.00;;
20954;SDS011;10636;19.390;-99.256;2022-10-31T06:07:57;11.15;;;10.05;;
20954;SDS011;10636;19.390;-99.256;2022-10-31T06:10:26;20.40;;;19.02;;
20954;SDS011;10636;19.390;-99.256;2022-10-31T06:12:54;23.75;;;22.27;;
20954;SDS011;10636;19.390;-99.256;2022-10-31T06:15:23;11.05;;;10.02;;
20954;SDS011;10636;19.390;-99.256;2022-10-31T06:17:58;9.75;;;8.80;;
20954;SDS011;10636;19.390;-99.256;2022-10-31T06:20:29;10.57;;;9.52;;
20954;SDS011;10636;19.390;-99.256;2022-10-31T06:22:57;11.20;;;10.02;;
20954;SDS011;10636;19.390;-99.256;2022-10-31T06:25:26;10.75;;;9.75;;
20954;SDS011;10636;19.390;-99.256;2022-10-31T06:27:55;10.02;;;9.13;;
20954;SDS011;10636;19.390;-99.256;2022-10-31T06:30:23;26.30;;;24.75;;
20954;SDS011;10636;19.390;-99.256;2022-10-31T06:32:52;25.77;;;24.23;;
20954;SDS011;10636;19.390;-99.256;2022-10-31T06:35:20;27.75;;;25.95;;
20954;SDS011;10636;19.390;-99.256;2022-10-31T06:37:53;26.85;;;25.25;;
20954;SDS011;10636;19.390;-99.256;2022-10-31T06:40:22;24.85;;;23.35;;
20954;SDS011;10636;19.390;-99.256;2022-10-31T06:42:56;25.17;;;23.65;;
20954;SDS011;10636;19.390;-99.256;2022-10-31T06:45:25;27.00;;;25.48;;
20954;SDS011;10636;19.390;-99.256;2022-10-31T06:47:54;10.80;;;9.70;;
20954;SDS011;10636;19.390;-99.256;2022-10-31T06:50:23;10.85;;;9.75;;
20954;SDS011;10636;19.390;-99.256;2022-10-31T06:52:53;10.52;;;9.52;;
20954;SDS011;10636;19.390;-99.256;2022-10-31T06:55:23;10.95;;;9.95;;
20954;SDS011;10636;19.390;-99.256;2022-10-31T06:57:52;25.83;;;24.23;;
20954;SDS011;10636;19.390;-99.256;2022-10-31T07:00:21;26.48;;;24.88;;
20954;SDS011;10636;19.390;-99.256;2022-10-31T07:02:54;26.80;;;25.30;;
20954;SDS011;10636;19.390;-99.256;2022-10-31T07:05:23;25.83;;;24.33;;
20954;SDS011;10636;19.390;-99.256;2022-10-31T07:07:54;11.00;;;9.90;;
20954;SDS011;10636;19.390;-99.256;2022-10-31T07:10:23;25.20;;;23.65;;
20954;SDS011;10636;19.390;-99.256;2022-10-31T07:12:55;27.75;;;26.08;;
20954;SDS011;10636;19.390;-99.256;2022-10-31T07:15:24;10.60;;;9.57;;
20954;SDS011;10636;19.390;-99.256;2022-10-31T07:17:54;10.90;;;9.80;;
20954;SDS011;10636;19.390;-99.256;2022-10-31T07:20:27;10.68;;;9.68;;
20954;SDS011;10636;19.390;-99.256;2022-10-31T07:22:57;10.25;;;9.25;;
20954;SDS011;10636;19.390;-99.256;2022-10-31T07:25:26;10.65;;;9.55;;
20954;SDS011;10636;19.390;-99.256;2022-10-31T07:27:54;11.10;;;10.00;;
20954;SDS011;10636;19.390;-99.256;2022-10-31T07:30:23;10.95;;;9.95;;
20954;SDS011;10636;19.390;-99.256;2022-10-31T07:32:51;10.60;;;9.60;;
20954;SDS011;10636;19.390;-99.256;2022-10-31T07:35:21;10.90;;;9.90;;
20954;SDS011;10636;19.390;-99.256;2022-10-31T07:37:51;10.50;;;9.60;;
20954;SDS011;10636;19.390;-99.256;2022-10-31T07:40:22;29.17;;;27.42;;
20954;SDS011;10636;19.390;-99.256;2022-10-31T07:42:51;10.88;;;9.88;;
20954;SDS011;10636;19.390;-99.256;2022-10-31T07:45:20;10.85;;;9.80;;
20954;SDS011;10636;19.390;-99.256;2022-10-31T07:47:49;10.55;;;9.55;;
20954;SDS011;10636;19.390;-99.256;2022-10-31T07:50:19;26.10;;;24.60;;
20954;SDS011;10636;19.390;-99.256;2022-10-31T07:52:48;26.23;;;24.63;;
20954;SDS011;10636;19.390;-99.256;2022-10-31T07:55:28;28.27;;;26.58;;
20954;SDS011;10636;19.390;-99.256;2022-10-31T07:57:58;26.65;;;25.13;;
20954;SDS011;10636;19.390;-99.256;2022-10-31T08:00:27;25.35;;;23.85;;
20954;SDS011;10636;19.390;-99.256;2022-10-31T08:02:56;26.83;;;25.23;;
20954;SDS011;10636;19.390;-99.256;2022-10-31T08:05:25;26.88;;;25.27;;
20954;SDS011;10636;19.390;-99.256;2022-10-31T08:07:54;26.27;;;24.67;;
20954;SDS011;10636;19.390;-99.256;2022-10-31T08:10:23;26.13;;;24.52;;
20954;SDS011;10636;19.390;-99.256;2022-10-31T08:12:57;25.83;;;24.33;;
20954;SDS011;10636;19.390;-99.256;2022-10-31T08:15:26;27.20;;;25.60;;
20954;SDS011;10636;19.390;-99.256;2022-10-31T08:17:55;11.25;;;10.15;;
20954;SDS011;10636;19.390;-99.256;2022-10-31T08:20:24;24.80;;;23.30;;
20954;SDS011;10636;19.390;-99.256;2022-10-31T08:22:53;29.83;;;28.05;;
20954;SDS011;10636;19.390;-99.256;2022-10-31T08:25:25;27.38;;;25.77;;
20954;SDS011;10636;19.390;-99.256;2022-10-31T08:27:57;25.73;;;24.23;;
20954;SDS011;10636;19.390;-99.256;2022-10-31T08:30:26;10.60;;;9.60;;
20954;SDS011;10636;19.390;-99.256;2022-10-31T08:32:59;26.92;;;25.42;;
20954;SDS011;10636;19.390;-99.256;2022-10-31T08:35:28;26.70;;;25.10;;
20954;SDS011;10636;19.390;-99.256;2022-10-31T08:37:57;26.20;;;24.70;;
20954;SDS011;10636;19.390;-99.256;2022-10-31T08:40:26;27.50;;;25.83;;
20954;SDS011;10636;19.390;-99.256;2022-10-31T08:42:57;26.65;;;25.05;;
20954;SDS011;10636;19.390;-99.256;2022-10-31T08:45:27;11.50;;;10.30;;
20954;SDS011;10636;19.390;-99.256;2022-10-31T08:47:59;25.98;;;24.48;;
20954;SDS011;10636;19.390;-99.256;2022-10-31T08:50:28;25.60;;;24.10;;
20954;SDS011;10636;19.390;-99.256;2022-10-31T08:53:01;25.13;;;23.63;;
20954;SDS011;10636;19.390;-99.256;2022-10-31T08:55:29;26.05;;;24.45;;
20954;SDS011;10636;19.390;-99.256;2022-10-31T08:57:59;26.25;;;24.65;;
20954;SDS011;10636;19.390;-99.256;2022-10-31T09:00:28;26.15;;;24.58;;
20954;SDS011;10636;19.390;-99.256;2022-10-31T09:02:57;27.40;;;25.67;;
20954;SDS011;10636;19.390;-99.256;2022-10-31T09:05:26;28.25;;;26.55;;
20954;SDS011;10636;19.390;-99.256;2022-10-31T09:07:55;27.23;;;25.63;;
20954;SDS011;10636;19.390;-99.256;2022-10-31T09:10:24;25.00;;;23.60;;
20954;SDS011;10636;19.390;-99.256;2022-10-31T09:12:56;24.70;;;23.15;;
20954;SDS011;10636;19.390;-99.256;2022-10-31T09:15:26;25.75;;;24.25;;
20954;SDS011;10636;19.390;-99.256;2022-10-31T09:17:55;12.05;;;10.88;;
20954;SDS011;10636;19.390;-99.256;2022-10-31T09:20:23;11.50;;;10.50;;
20954;SDS011;10636;19.390;-99.256;2022-10-31T09:22:55;11.52;;;10.43;;
20954;SDS011;10636;19.390;-99.256;2022-10-31T09:25:24;11.65;;;10.55;;
20954;SDS011;10636;19.390;-99.256;2022-10-31T09:27:55;12.70;;;11.50;;
20954;SDS011;10636;19.390;-99.256;2022-10-31T09:30:26;27.92;;;26.23;;
20954;SDS011;10636;19.390;-99.256;2022-10-31T09:32:56;28.98;;;27.27;;
20954;SDS011;10636;19.390;-99.256;2022-10-31T09:35:25;13.63;;;11.30;;
20954;SDS011;10636;19.390;-99.256;2022-10-31T09:37:54;12.88;;;11.77;;
20954;SDS011;10636;19.390;-99.256;2022-10-31T09:40:24;11.45;;;10.45;;
20954;SDS011;10636;19.390;-99.256;2022-10-31T09:42:59;26.92;;;25.20;;
20954;SDS011;10636;19.390;-99.256;2022-10-31T09:45:39;24.65;;;23.25;;
20954;SDS011;10636;19.390;-99.256;2022-10-31T09:48:19;26.15;;;24.65;;
20954;SDS011;10636;19.390;-99.256;2022-10-31T09:50:59;27.42;;;25.63;;
20954;SDS011;10636;19.390;-99.256;2022-10-31T09:53:32;27.25;;;25.65;;
20954;SDS011;10636;19.390;-99.256;2022-10-31T09:56:05;12.35;;;11.15;;
20954;SDS011;10636;19.390;-99.256;2022-10-31T09:58:40;12.50;;;11.30;;
20954;SDS011;10636;19.390;-99.256;2022-10-31T10:01:17;28.75;;;27.05;;
20954;SDS011;10636;19.390;-99.256;2022-10-31T10:04:03;12.10;;;11.00;;
20954;SDS011;10636;19.390;-99.256;2022-10-31T10:06:43;12.05;;;10.95;;
20954;SDS011;10636;19.390;-99.256;2022-10-31T10:09:14;12.07;;;10.98;;
20954;SDS011;10636;19.390;-99.256;2022-10-31T10:11:51;12.02;;;10.93;;
20954;SDS011;10636;19.390;-99.256;2022-10-31T10:14:34;27.65;;;25.98;;
20954;SDS011;10636;19.390;-99.256;2022-10-31T10:17:24;12.38;;;11.27;;
20954;SDS011;10636;19.390;-99.256;2022-10-31T10:20:18;25.30;;;23.75;;
20954;SDS011;10636;19.390;-99.256;2022-10-31T10:23:11;12.50;;;11.30;;
20954;SDS011;10636;19.390;-99.256;2022-10-31T10:25:49;12.30;;;11.20;;
20954;SDS011;10636;19.390;-99.256;2022-10-31T10:28:25;27.38;;;25.73;;
20954;SDS011;10636;19.390;-99.256;2022-10-31T10:30:59;12.73;;;11.63;;
20954;SDS011;10636;19.390;-99.256;2022-10-31T10:33:35;12.27;;;11.15;;
20954;SDS011;10636;19.390;-99.256;2022-10-31T10:36:08;12.50;;;11.30;;
20954;SDS011;10636;19.390;-99.256;2022-10-31T10:38:46;11.88;;;10.77;;
20954;SDS011;10636;19.390;-99.256;2022-10-31T10:41:19;27.85;;;26.15;;
20954;SDS011;10636;19.390;-99.256;2022-10-31T10:43:49;27.90;;;26.27;;
20954;SDS011;10636;19.390;-99.256;2022-10-31T10:46:21;25.13;;;23.55;;
20954;SDS011;10636;19.390;-99.256;2022-10-31T10:49:15;25.98;;;24.35;;
20954;SDS011;10636;19.390;-99.256;2022-10-31T10:51:46;27.30;;;25.60;;
20954;SDS011;10636;19.390;-99.256;2022-10-31T10:54:23;12.13;;;11.05;;
20954;SDS011;10636;19.390;-99.256;2022-10-31T10:57:14;25.60;;;24.10;;
20954;SDS011;10636;19.390;-99.256;2022-10-31T10:59:49;12.60;;;11.40;;
20954;SDS011;10636;19.390;-99.256;2022-10-31T11:02:18;11.88;;;10.73;;
20954;SDS011;10636;19.390;-99.256;2022-10-31T11:04:52;12.23;;;11.13;;
20954;SDS011;10636;19.390;-99.256;2022-10-31T11:07:22;11.75;;;10.75;;
20954;SDS011;10636;19.390;-99.256;2022-10-31T11:10:01;27.35;;;25.75;;
20954;SDS011;10636;19.390;-99.256;2022-10-31T11:12:38;27.27;;;25.67;;
20954;SDS011;10636;19.390;-99.256;2022-10-31T11:15:08;27.92;;;26.23;;
20954;SDS011;10636;19.390;-99.256;2022-10-31T11:17:47;29.75;;;28.05;;
20954;SDS011;10636;19.390;-99.256;2022-10-31T11:20:26;24.65;;;23.15;;
20954;SDS011;10636;19.390;-99.256;2022-10-31T11:23:04;26.42;;;24.83;;
20954;SDS011;10636;19.390;-99.256;2022-10-31T11:25:51;25.98;;;24.38;;
20954;SDS011;10636;19.390;-99.256;2022-10-31T11:28:22;26.40;;;24.90;;
20954;SDS011;10636;19.390;-99.256;2022-10-31T11:30:51;27.27;;;25.50;;
20954;SDS011;10636;19.390;-99.256;2022-10-31T11:33:24;25.27;;;23.73;;
20954;SDS011;10636;19.390;-99.256;2022-10-31T11:35:58;13.05;;;11.68;;
20954;SDS011;10636;19.390;-99.256;2022-10-31T11:38:30;24.70;;;22.90;;
20954;SDS011;10636;19.390;-99.256;2022-10-31T11:41:05;26.90;;;25.10;;
20954;SDS011;10636;19.390;-99.256;2022-10-31T11:43:39;24.50;;;22.98;;
20954;SDS011;10636;19.390;-99.256;2022-10-31T11:46:17;13.00;;;11.55;;
20954;SDS011;10636;19.390;-99.256;2022-10-31T11:48:48;24.65;;;22.85;;
20954;SDS011;10636;19.390;-99.256;2022-10-31T11:51:22;25.83;;;24.05;;
20954;SDS011;10636;19.390;-99.256;2022-10-31T11:53:53;26.05;;;24.05;;
20954;SDS011;10636;19.390;-99.256;2022-10-31T11:56:25;27.17;;;25.35;;
20954;SDS011;10636;19.390;-99.256;2022-10-31T11:58:57;25.23;;;23.27;;
20954;SDS011;10636;19.390;-99.256;2022-10-31T12:01:30;23.75;;;21.92;;
20954;SDS011;10636;19.390;-99.256;2022-10-31T12:04:02;25.33;;;23.63;;
20954;SDS011;10636;19.390;-99.256;2022-10-31T12:06:36;23.85;;;22.15;;
20954;SDS011;10636;19.390;-99.256;2022-10-31T12:09:10;26.45;;;24.55;;
20954;SDS011;10636;19.390;-99.256;2022-10-31T12:11:52;26.02;;;24.17;;
20954;SDS011;10636;19.390;-99.256;2022-10-31T12:14:51;14.65;;;13.15;;
20954;SDS011;10636;19.390;-99.256;2022-10-31T12:17:30;24.13;;;22.45;;
20954;SDS011;10636;19.390;-99.256;2022-10-31T12:20:10;23.90;;;22.30;;
20954;SDS011;10636;19.390;-99.256;2022-10-31T12:22:56;23.98;;;22.38;;
20954;SDS011;10636;19.390;-99.256;2022-10-31T12:25:33;22.42;;;20.83;;
20954;SDS011;10636;19.390;-99.256;2022-10-31T12:31:16;22.42;;;20.92;;
20954;SDS011;10636;19.390;-99.256;2022-10-31T12:33:58;13.25;;;11.95;;
20954;SDS011;10636;19.390;-99.256;2022-10-31T12:36:40;12.95;;;11.65;;
20954;SDS011;10636;19.390;-99.256;2022-10-31T12:39:28;14.25;;;12.75;;
20954;SDS011;10636;19.390;-99.256;2022-10-31T12:42:07;13.05;;;11.75;;
20954;SDS011;10636;19.390;-99.256;2022-10-31T12:44:57;25.98;;;24.27;;
20954;SDS011;10636;19.390;-99.256;2022-10-31T12:47:40;13.30;;;12.00;;
20954;SDS011;10636;19.390;-99.256;2022-10-31T12:50:31;13.70;;;12.20;;
20954;SDS011;10636;19.390;-99.256;2022-10-31T12:53:13;13.10;;;11.70;;
20954;SDS011;10636;19.390;-99.256;2022-10-31T12:55:54;25.60;;;23.85;;
20954;SDS011;10636;19.390;-99.256;2022-10-31T12:58:30;24.83;;;23.13;;
20954;SDS011;10636;19.390;-99.256;2022-10-31T13:01:05;23.85;;;22.27;;
20954;SDS011;10636;19.390;-99.256;2022-10-31T13:03:40;12.80;;;11.50;;
20954;SDS011;10636;19.390;-99.256;2022-10-31T13:06:15;15.80;;;14.40;;
20954;SDS011;10636;19.390;-99.256;2022-10-31T13:08:47;13.27;;;11.95;;
20954;SDS011;10636;19.390;-99.256;2022-10-31T13:11:21;13.38;;;12.18;;
20954;SDS011;10636;19.390;-99.256;2022-10-31T13:13:55;26.65;;;24.95;;
20954;SDS011;10636;19.390;-99.256;2022-10-31T13:16:29;25.08;;;23.50;;
20954;SDS011;10636;19.390;-99.256;2022-10-31T13:19:03;24.08;;;22.48;;
20954;SDS011;10636;19.390;-99.256;2022-10-31T13:21:39;14.30;;;12.82;;
20954;SDS011;10636;19.390;-99.256;2022-10-31T13:24:12;14.65;;;13.30;;
20954;SDS011;10636;19.390;-99.256;2022-10-31T13:26:46;17.73;;;16.08;;
20954;SDS011;10636;19.390;-99.256;2022-10-31T13:29:18;18.15;;;16.25;;
20954;SDS011;10636;19.390;-99.256;2022-10-31T13:31:52;17.10;;;15.48;;
20954;SDS011;10636;19.390;-99.256;2022-10-31T13:34:23;14.70;;;13.20;;
20954;SDS011;10636;19.390;-99.256;2022-10-31T13:37:03;16.35;;;14.90;;
20954;SDS011;10636;19.390;-99.256;2022-10-31T13:42:37;16.13;;;14.63;;
20954;SDS011;10636;19.390;-99.256;2022-10-31T13:45:13;15.65;;;14.25;;
20954;SDS011;10636;19.390;-99.256;2022-10-31T13:47:42;16.65;;;15.05;;
20954;SDS011;10636;19.390;-99.256;2022-10-31T13:50:23;16.63;;;14.90;;
20954;SDS011;10636;19.390;-99.256;2022-10-31T13:53:03;16.35;;;14.93;;
20954;SDS011;10636;19.390;-99.256;2022-10-31T13:55:39;16.35;;;14.05;;
20954;SDS011;10636;19.390;-99.256;2022-10-31T13:58:23;17.15;;;15.02;;
20954;SDS011;10636;19.390;-99.256;2022-10-31T14:00:58;17.55;;;15.88;;
20954;SDS011;10636;19.390;-99.256;2022-10-31T14:03:32;16.88;;;15.27;;
20954;SDS011;10636;19.390;-99.256;2022-10-31T14:06:04;17.13;;;15.60;;
20954;SDS011;10636;19.390;-99.256;2022-10-31T14:08:35;17.65;;;16.05;;
20954;SDS011;10636;19.390;-99.256;2022-10-31T14:11:08;17.98;;;16.38;;
20954;SDS011;10636;19.390;-99.256;2022-10-31T14:13:51;18.23;;;16.42;;
20954;SDS011;10636;19.390;-99.256;2022-10-31T14:16:20;18.27;;;15.93;;
20954;SDS011;10636;19.390;-99.256;2022-10-31T14:18:56;17.70;;;15.40;;
20954;SDS011;10636;19.390;-99.256;2022-10-31T14:21:29;18.00;;;16.38;;
20954;SDS011;10636;19.390;-99.256;2022-10-31T14:23:59;19.02;;;17.13;;
20954;SDS011;10636;19.390;-99.256;2022-10-31T14:26:32;19.08;;;17.27;;
20954;SDS011;10636;19.390;-99.256;2022-10-31T14:31:52;19.90;;;16.75;;
20954;SDS011;10636;19.390;-99.256;2022-10-31T14:34:23;19.08;;;16.95;;
20954;SDS011;10636;19.390;-99.256;2022-10-31T14:43:02;22.30;;;20.20;;
20954;SDS011;10636;19.390;-99.256;2022-10-31T14:45:52;21.88;;;19.85;;
20954;SDS011;10636;19.390;-99.256;2022-10-31T14:51:28;22.17;;;19.27;;
20954;SDS011;10636;19.390;-99.256;2022-10-31T14:54:05;24.20;;;21.77;;
20954;SDS011;10636;19.390;-99.256;2022-10-31T14:56:35;23.98;;;21.38;;
20954;SDS011;10636;19.390;-99.256;2022-10-31T14:59:11;26.13;;;22.45;;